createdAt,value
2023-05-14T00:01:09.044Z,6.42
2023-05-14T00:03:41.124Z,6.47
2023-05-14T00:06:12.875Z,6.51
2023-05-14T00:08:44.344Z,6.55
2023-05-14T00:11:17.373Z,6.58
2023-05-14T00:13:49.332Z,6.60
2023-05-14T00:16:20.852Z,6.59
2023-05-14T00:18:51.012Z,6.55
2023-05-14T00:21:22.954Z,6.46
2023-05-14T00:23:54.459Z,6.41
2023-05-14T00:26:25.920Z,6.39
2023-05-14T00:28:57.449Z,6.38
2023-05-14T00:31:29.054Z,6.36
2023-05-14T00:34:00.652Z,6.33
2023-05-14T00:36:32.311Z,6.27
2023-05-14T00:39:02.319Z,6.22
2023-05-14T00:41:33.951Z,6.14
2023-05-14T00:44:04.080Z,6.16
2023-05-14T00:46:35.701Z,6.10
2023-05-14T00:49:05.874Z,6.12
2023-05-14T00:51:38.065Z,6.09
2023-05-14T00:54:10.300Z,6.11
2023-05-14T00:56:42.051Z,6.12
2023-05-14T00:59:13.778Z,6.12
2023-05-14T01:01:45.505Z,6.14
2023-05-14T01:04:15.865Z,6.14
2023-05-14T01:06:58.725Z,6.10
2023-05-14T01:09:38.774Z,6.11
2023-05-14T01:12:18.272Z,6.11
2023-05-14T01:15:01.596Z,6.07
2023-05-14T01:17:36.500Z,6.05
2023-05-14T01:20:13.353Z,6.02
2023-05-14T01:22:44.902Z,6.01
2023-05-14T01:25:16.690Z,5.98
2023-05-14T01:27:50.722Z,5.92
2023-05-14T01:30:27.401Z,5.80
2023-05-14T01:33:04.076Z,5.76
2023-05-14T01:35:36.057Z,5.76
2023-05-14T01:38:11.621Z,5.78
2023-05-14T01:40:43.717Z,5.83
2023-05-14T01:43:16.100Z,5.88
2023-05-14T01:45:48.037Z,5.90
2023-05-14T01:48:19.608Z,5.91
2023-05-14T01:50:49.691Z,5.89
2023-05-14T01:53:21.409Z,5.82
2023-05-14T01:55:52.941Z,5.83
2023-05-14T01:58:24.573Z,5.85
2023-05-14T02:00:54.646Z,5.86
2023-05-14T02:03:26.437Z,5.83
2023-05-14T02:05:57.896Z,5.85
2023-05-14T02:08:29.490Z,5.85
2023-05-14T02:10:59.547Z,5.83
2023-05-14T02:13:31.128Z,5.78
2023-05-14T02:16:03.089Z,5.80
2023-05-14T02:18:33.253Z,5.84
2023-05-14T02:21:04.988Z,5.82
2023-05-14T02:23:41.572Z,5.86
2023-05-14T02:26:13.824Z,5.86
2023-05-14T02:28:43.937Z,5.82
2023-05-14T02:31:19.362Z,5.73
2023-05-14T02:33:51.007Z,5.70
2023-05-14T02:36:21.144Z,5.66
2023-05-14T02:38:52.693Z,5.60
2023-05-14T02:41:24.269Z,5.61
2023-05-14T02:43:56.861Z,5.63
2023-05-14T02:46:28.468Z,5.65
2023-05-14T02:49:00.090Z,5.67
2023-05-14T02:51:31.670Z,5.70
2023-05-14T02:54:01.721Z,5.73
2023-05-14T02:56:33.290Z,5.71
2023-05-14T02:59:03.367Z,5.73
2023-05-14T03:01:35.388Z,5.69
2023-05-14T03:04:07.660Z,5.68
2023-05-14T03:06:39.272Z,5.65
2023-05-14T03:09:10.846Z,5.62
2023-05-14T03:11:41.065Z,5.64
2023-05-14T03:14:12.570Z,5.62
2023-05-14T03:16:44.196Z,5.64
2023-05-14T03:19:16.908Z,5.69
2023-05-14T03:21:49.992Z,5.75
2023-05-14T03:24:21.478Z,5.83
2023-05-14T03:26:53.261Z,5.90
2023-05-14T03:29:24.771Z,5.96
2023-05-14T03:31:56.557Z,6.15
2023-05-14T03:34:28.744Z,6.47
2023-05-14T03:36:58.793Z,6.91
2023-05-14T03:39:30.300Z,7.31
2023-05-14T03:42:02.030Z,7.81
2023-05-14T03:44:32.062Z,8.27
2023-05-14T03:47:03.656Z,8.60
2023-05-14T03:49:35.552Z,9.06
2023-05-14T03:52:07.430Z,9.58
2023-05-14T03:54:41.165Z,10.14
2023-05-14T03:57:12.900Z,10.72
2023-05-14T03:59:45.787Z,11.29
2023-05-14T04:02:18.056Z,11.72
2023-05-14T04:04:49.822Z,12.27
2023-05-14T04:07:26.123Z,12.89
2023-05-14T04:09:58.346Z,13.52
2023-05-14T04:12:29.860Z,14.11
2023-05-14T04:15:02.302Z,14.62
2023-05-14T04:17:35.086Z,15.17
2023-05-14T04:20:08.726Z,15.76
2023-05-14T04:22:40.323Z,16.39
2023-05-14T04:25:12.500Z,16.82
2023-05-14T04:27:44.520Z,17.10
2023-05-14T04:30:16.649Z,17.48
2023-05-14T04:32:48.217Z,17.46
2023-05-14T04:35:21.622Z,17.83
2023-05-14T04:37:54.971Z,18.48
2023-05-14T04:40:26.710Z,19.15
2023-05-14T04:42:58.411Z,19.88
2023-05-14T04:45:30.862Z,20.23
2023-05-14T04:48:03.503Z,20.17
2023-05-14T04:50:35.362Z,19.80
2023-05-14T04:53:06.962Z,19.53
2023-05-14T04:55:38.936Z,19.65
2023-05-14T04:58:10.495Z,19.98
2023-05-14T05:00:42.034Z,20.16
2023-05-14T05:03:13.538Z,20.30
2023-05-14T05:05:45.171Z,20.22
2023-05-14T05:08:16.740Z,19.97
2023-05-14T05:10:48.295Z,19.62
2023-05-14T05:13:19.838Z,19.37
2023-05-14T05:15:51.462Z,19.28
2023-05-14T05:18:23.013Z,19.37
2023-05-14T05:20:54.504Z,19.31
2023-05-14T05:23:26.057Z,19.19
2023-05-14T05:25:57.638Z,19.27
2023-05-14T05:28:29.194Z,19.57
2023-05-14T05:31:00.725Z,20.17
2023-05-14T05:33:32.459Z,20.77
2023-05-14T05:36:03.983Z,20.83
2023-05-14T05:38:35.556Z,20.52
2023-05-14T05:41:07.481Z,20.52
2023-05-14T05:43:39.246Z,20.65
2023-05-14T05:46:10.924Z,20.78
2023-05-14T05:48:42.489Z,21.06
2023-05-14T05:51:14.256Z,21.37
2023-05-14T05:53:46.199Z,21.52
2023-05-14T05:56:17.727Z,21.56
2023-05-14T05:58:49.281Z,21.66
2023-05-14T06:01:20.831Z,21.67
2023-05-14T06:03:52.313Z,21.43
2023-05-14T06:06:23.791Z,21.26
2023-05-14T06:08:55.308Z,20.97
2023-05-14T06:11:27.687Z,20.64
2023-05-14T06:13:59.269Z,20.46
2023-05-14T06:16:31.358Z,20.23
2023-05-14T06:19:03.058Z,20.41
2023-05-14T06:21:34.923Z,20.55
2023-05-14T06:24:08.699Z,20.73
2023-05-14T06:26:40.309Z,20.52
2023-05-14T06:29:11.878Z,20.17
2023-05-14T06:31:43.551Z,20.09
2023-05-14T06:34:15.135Z,20.02
2023-05-14T06:36:46.646Z,20.01
2023-05-14T06:39:18.162Z,20.13
2023-05-14T06:41:49.654Z,20.31
2023-05-14T06:44:21.964Z,20.50
2023-05-14T06:46:53.429Z,20.90
2023-05-14T06:49:25.185Z,21.31
2023-05-14T06:51:56.708Z,21.38
2023-05-14T06:54:28.462Z,21.45
2023-05-14T06:57:00.048Z,21.29
2023-05-14T06:59:31.572Z,20.85
2023-05-14T07:02:03.303Z,20.25
2023-05-14T07:04:34.962Z,19.70
2023-05-14T07:07:07.236Z,19.34
2023-05-14T07:09:38.682Z,18.97
2023-05-14T07:12:11.102Z,18.77
2023-05-14T07:14:42.729Z,18.89
2023-05-14T07:17:14.350Z,18.94
2023-05-14T07:19:47.174Z,18.85
2023-05-14T07:22:18.835Z,18.78
2023-05-14T07:24:50.477Z,18.69
2023-05-14T07:27:21.958Z,18.72
2023-05-14T07:29:53.735Z,18.61
2023-05-14T07:32:25.434Z,18.32
2023-05-14T07:34:56.973Z,18.19
2023-05-14T07:37:28.568Z,18.17
2023-05-14T07:40:00.230Z,17.92
2023-05-14T07:42:36.519Z,17.60
2023-05-14T07:45:11.612Z,17.44
2023-05-14T07:47:43.380Z,17.50
2023-05-14T07:50:15.401Z,17.52
2023-05-14T07:52:47.138Z,17.51
2023-05-14T07:55:18.909Z,17.28
2023-05-14T07:57:50.415Z,17.03
2023-05-14T08:00:22.347Z,16.93
2023-05-14T08:02:54.265Z,16.89
2023-05-14T08:05:26.515Z,16.89
2023-05-14T08:07:58.063Z,16.99
2023-05-14T08:10:29.936Z,17.03
2023-05-14T08:13:01.509Z,16.99
2023-05-14T08:15:33.010Z,17.01
2023-05-14T08:18:04.758Z,17.02
2023-05-14T08:20:36.452Z,17.10
2023-05-14T08:23:07.959Z,17.19
2023-05-14T08:25:39.494Z,17.21
2023-05-14T08:28:11.027Z,17.35
2023-05-14T08:30:42.608Z,17.56
2023-05-14T08:33:14.444Z,17.82
2023-05-14T08:35:46.030Z,17.83
2023-05-14T08:38:17.589Z,17.78
2023-05-14T08:40:57.159Z,17.62
2023-05-14T08:43:31.783Z,17.65
2023-05-14T08:46:06.388Z,17.80
2023-05-14T08:48:41.531Z,17.97
2023-05-14T08:51:13.731Z,18.06
2023-05-14T08:53:45.487Z,18.08
2023-05-14T08:56:19.597Z,18.11
2023-05-14T08:58:51.142Z,18.29
2023-05-14T09:01:23.268Z,18.31
2023-05-14T09:03:55.575Z,18.27
2023-05-14T09:06:28.284Z,18.27
2023-05-14T09:08:59.861Z,18.41
2023-05-14T09:11:31.419Z,18.50
2023-05-14T09:14:02.932Z,18.60
2023-05-14T09:16:36.931Z,18.72
2023-05-14T09:19:09.201Z,18.71
2023-05-14T09:21:41.164Z,18.69
2023-05-14T09:24:21.838Z,18.71
2023-05-14T09:26:56.203Z,18.66
2023-05-14T09:29:29.265Z,18.77
2023-05-14T09:32:04.701Z,18.94
2023-05-14T09:34:38.311Z,19.04
2023-05-14T09:37:10.838Z,19.02
2023-05-14T09:39:42.333Z,18.94
2023-05-14T09:42:13.849Z,18.97
2023-05-14T09:44:46.987Z,19.08
2023-05-14T09:47:18.758Z,19.23
2023-05-14T09:49:51.980Z,19.38
2023-05-14T09:52:24.330Z,19.56
2023-05-14T09:54:56.113Z,19.74
2023-05-14T09:57:27.873Z,19.70
2023-05-14T09:59:59.413Z,19.62
2023-05-14T10:02:37.943Z,19.45
2023-05-14T10:05:11.339Z,19.33
2023-05-14T10:07:47.616Z,19.30
2023-05-14T10:10:21.924Z,19.40
2023-05-14T10:12:58.248Z,19.55
2023-05-14T10:15:39.369Z,19.70
2023-05-14T10:18:10.824Z,19.87
2023-05-14T10:20:41.223Z,19.95
2023-05-14T10:23:13.041Z,19.92
2023-05-14T10:25:44.870Z,20.03
2023-05-14T10:28:16.530Z,20.04
2023-05-14T10:30:48.766Z,19.92
2023-05-14T10:33:21.013Z,19.70
2023-05-14T10:35:59.147Z,19.71
2023-05-14T10:38:33.591Z,19.80
2023-05-14T10:41:15.007Z,19.86
2023-05-14T10:43:46.843Z,19.90
2023-05-14T10:46:19.091Z,20.01
2023-05-14T10:48:52.036Z,20.04
2023-05-14T10:51:24.367Z,20.00
2023-05-14T10:53:55.920Z,19.96
2023-05-14T10:56:27.639Z,19.87
2023-05-14T10:59:00.930Z,19.73
2023-05-14T11:01:34.922Z,19.63
2023-05-14T11:04:06.778Z,19.64
2023-05-14T11:06:41.559Z,19.60
2023-05-14T11:09:14.065Z,19.54
2023-05-14T11:11:45.660Z,19.60
2023-05-14T11:14:17.205Z,19.74
2023-05-14T11:16:49.712Z,19.90
2023-05-14T11:19:24.003Z,20.00
2023-05-14T11:21:55.567Z,20.09
2023-05-14T11:24:27.079Z,20.00
2023-05-14T11:26:58.753Z,19.96
2023-05-14T11:29:30.316Z,19.90
2023-05-14T11:32:02.492Z,19.97
2023-05-14T11:34:34.614Z,20.02
2023-05-14T11:37:07.637Z,20.00
2023-05-14T11:39:39.591Z,19.97
2023-05-14T11:42:14.671Z,19.91
2023-05-14T11:44:46.803Z,19.81
2023-05-14T11:47:20.138Z,19.74
2023-05-14T11:49:51.921Z,19.64
2023-05-14T11:52:23.559Z,19.52
2023-05-14T11:54:55.576Z,19.47
2023-05-14T11:57:27.787Z,19.42
2023-05-14T12:00:00.316Z,19.40
2023-05-14T12:02:32.640Z,19.40
2023-05-14T12:05:07.153Z,19.47
2023-05-14T12:07:38.778Z,19.63
2023-05-14T12:10:13.119Z,19.80
2023-05-14T12:12:48.365Z,20.00
2023-05-14T12:15:22.189Z,20.03
2023-05-14T12:17:53.749Z,20.10
2023-05-14T12:20:26.298Z,20.12
2023-05-14T12:22:57.990Z,19.98
2023-05-14T12:25:30.249Z,19.93
2023-05-14T12:28:14.308Z,20.09
2023-05-14T12:30:48.302Z,20.28
2023-05-14T12:33:22.810Z,20.45
2023-05-14T12:35:58.812Z,20.48
2023-05-14T12:38:32.604Z,20.54
2023-05-14T12:41:04.153Z,20.60
2023-05-14T12:43:35.758Z,20.43
2023-05-14T12:46:07.456Z,20.27
2023-05-14T12:48:38.948Z,20.09
2023-05-14T12:51:10.434Z,19.96
2023-05-14T12:53:42.195Z,19.95
2023-05-14T12:56:14.290Z,20.01
2023-05-14T12:58:46.611Z,20.02
2023-05-14T13:01:18.191Z,20.01
2023-05-14T13:03:49.892Z,20.05
2023-05-14T13:06:21.757Z,20.08
2023-05-14T13:08:53.252Z,20.03
2023-05-14T13:11:24.842Z,19.95
2023-05-14T13:13:56.403Z,19.91
2023-05-14T13:16:28.399Z,19.95
2023-05-14T13:18:59.975Z,19.92
2023-05-14T13:21:31.624Z,19.86
2023-05-14T13:24:03.120Z,19.83
2023-05-14T13:26:34.657Z,19.87
2023-05-14T13:29:06.651Z,20.01
2023-05-14T13:31:38.448Z,20.15
2023-05-14T13:34:11.064Z,20.29
2023-05-14T13:36:43.902Z,20.41
2023-05-14T13:39:17.253Z,20.41
2023-05-14T13:41:50.737Z,20.31
2023-05-14T13:44:22.230Z,20.18
2023-05-14T13:46:53.997Z,20.13
2023-05-14T13:49:25.966Z,20.17
2023-05-14T13:51:57.563Z,20.24
2023-05-14T13:54:29.108Z,20.14
2023-05-14T13:57:00.694Z,19.95
2023-05-14T13:59:32.256Z,19.79
2023-05-14T14:02:03.970Z,19.77
2023-05-14T14:04:35.594Z,19.80
2023-05-14T14:07:07.420Z,19.85
2023-05-14T14:09:38.932Z,19.95
2023-05-14T14:12:12.637Z,19.98
2023-05-14T14:14:44.224Z,19.95
2023-05-14T14:17:15.720Z,19.96
2023-05-14T14:19:47.334Z,19.98
2023-05-14T14:22:18.937Z,19.93
2023-05-14T14:24:50.497Z,19.92
2023-05-14T14:27:22.381Z,19.91
2023-05-14T14:29:53.918Z,19.83
2023-05-14T14:32:25.613Z,19.69
2023-05-14T14:34:57.196Z,19.60
2023-05-14T14:37:29.085Z,19.54
2023-05-14T14:40:00.619Z,19.49
2023-05-14T14:42:32.152Z,19.46
2023-05-14T14:45:03.724Z,19.45
2023-05-14T14:47:35.309Z,19.48
2023-05-14T14:50:09.299Z,19.50
2023-05-14T14:52:46.124Z,19.41
2023-05-14T14:55:17.727Z,19.38
2023-05-14T14:57:49.284Z,19.36
2023-05-14T15:00:22.807Z,19.41
2023-05-14T15:02:54.507Z,19.46
2023-05-14T15:05:26.382Z,19.44
2023-05-14T15:07:58.000Z,19.35
2023-05-14T15:10:32.860Z,19.30
2023-05-14T15:13:04.755Z,19.28
2023-05-14T15:15:38.519Z,19.27
2023-05-14T15:18:10.387Z,19.26
2023-05-14T15:20:42.335Z,19.15
2023-05-14T15:23:13.861Z,19.03
2023-05-14T15:25:45.582Z,18.92
2023-05-14T15:28:20.692Z,18.87
2023-05-14T15:30:52.797Z,18.85
2023-05-14T15:33:24.376Z,18.84
2023-05-14T15:35:55.842Z,18.83
2023-05-14T15:38:27.376Z,18.82
2023-05-14T15:40:58.968Z,18.81
2023-05-14T15:43:30.453Z,18.81
2023-05-14T15:46:02.245Z,18.78
2023-05-14T15:48:33.819Z,18.76
2023-05-14T15:51:05.501Z,18.73
2023-05-14T15:53:37.036Z,18.70
2023-05-14T15:56:09.338Z,18.68
2023-05-14T15:58:41.017Z,18.66
2023-05-14T16:01:12.596Z,18.62
2023-05-14T16:03:44.227Z,18.60
2023-05-14T16:06:16.093Z,18.59
2023-05-14T16:08:47.613Z,18.58
2023-05-14T16:11:19.460Z,18.56
2023-05-14T16:13:51.081Z,18.58
2023-05-14T16:16:23.241Z,18.55
2023-05-14T16:18:54.856Z,18.54
2023-05-14T16:21:26.378Z,18.51
2023-05-14T16:23:58.021Z,18.52
2023-05-14T16:26:29.589Z,18.52
2023-05-14T16:29:01.052Z,18.50
2023-05-14T16:31:32.577Z,18.42
2023-05-14T16:34:04.391Z,18.37
2023-05-14T16:36:36.110Z,18.35
2023-05-14T16:39:08.567Z,18.32
2023-05-14T16:41:40.171Z,18.28
2023-05-14T16:44:11.853Z,18.25
2023-05-14T16:46:43.373Z,18.23
2023-05-14T16:49:15.169Z,18.21
2023-05-14T16:51:47.435Z,18.20
2023-05-14T16:54:19.143Z,18.18
2023-05-14T16:56:50.766Z,18.16
2023-05-14T16:59:22.379Z,18.13
2023-05-14T17:01:53.987Z,18.11
2023-05-14T17:04:26.590Z,18.08
2023-05-14T17:06:58.827Z,18.04
2023-05-14T17:09:31.251Z,18.00
2023-05-14T17:12:07.581Z,17.97
2023-05-14T17:14:42.676Z,17.94
2023-05-14T17:17:14.325Z,17.91
2023-05-14T17:19:46.892Z,17.86
2023-05-14T17:22:20.017Z,17.84
2023-05-14T17:24:51.738Z,17.80
2023-05-14T17:27:23.303Z,17.75
2023-05-14T17:29:54.812Z,17.72
2023-05-14T17:32:26.644Z,17.69
2023-05-14T17:34:58.579Z,17.65
2023-05-14T17:37:30.101Z,17.61
2023-05-14T17:40:01.728Z,17.59
2023-05-14T17:42:33.409Z,17.56
2023-05-14T17:45:05.970Z,17.52
2023-05-14T17:47:37.729Z,17.50
2023-05-14T17:50:11.401Z,17.48
2023-05-14T17:52:44.225Z,17.47
2023-05-14T17:55:18.082Z,17.45
2023-05-14T17:57:49.765Z,17.43
2023-05-14T18:00:21.890Z,17.42
2023-05-14T18:02:53.582Z,17.41
2023-05-14T18:05:25.492Z,17.39
2023-05-14T18:07:58.009Z,17.39
2023-05-14T18:10:30.071Z,17.36
2023-05-14T18:13:01.575Z,17.34
2023-05-14T18:15:33.730Z,17.31
2023-05-14T18:18:06.000Z,17.30
2023-05-14T18:20:38.572Z,17.31
2023-05-14T18:23:10.157Z,17.33
2023-05-14T18:25:41.933Z,17.34
2023-05-14T18:28:13.611Z,17.33
2023-05-14T18:30:45.328Z,17.29
2023-05-14T18:33:17.083Z,17.25
2023-05-14T18:35:48.892Z,17.19
2023-05-14T18:38:20.501Z,17.09
2023-05-14T18:40:52.135Z,16.99
2023-05-14T18:43:23.643Z,16.87
2023-05-14T18:45:55.329Z,16.80
2023-05-14T18:48:27.045Z,16.72
2023-05-14T18:50:58.671Z,16.60
2023-05-14T18:53:30.277Z,16.46
2023-05-14T18:56:02.092Z,16.33
2023-05-14T18:58:33.739Z,16.16
2023-05-14T19:01:05.631Z,16.01
2023-05-14T19:03:37.612Z,15.89
2023-05-14T19:06:10.760Z,15.81
2023-05-14T19:08:42.521Z,15.72
2023-05-14T19:11:14.322Z,15.66
2023-05-14T19:13:47.914Z,15.58
2023-05-14T19:16:20.059Z,15.50
2023-05-14T19:18:51.766Z,15.45
2023-05-14T19:21:23.715Z,15.38
2023-05-14T19:23:55.504Z,15.31
2023-05-14T19:26:27.440Z,15.21
2023-05-14T19:28:59.288Z,15.13
2023-05-14T19:31:31.131Z,15.05
2023-05-14T19:34:02.945Z,14.97
2023-05-14T19:36:35.022Z,14.91
2023-05-14T19:39:07.118Z,14.85
2023-05-14T19:41:38.822Z,14.82
2023-05-14T19:44:10.464Z,14.79
2023-05-14T19:46:42.815Z,14.76
2023-05-14T19:49:14.562Z,14.72
2023-05-14T19:51:46.296Z,14.69
2023-05-14T19:54:18.004Z,14.68
2023-05-14T19:56:49.898Z,14.66
2023-05-14T19:59:21.583Z,14.62
2023-05-14T20:01:54.512Z,14.54
2023-05-14T20:04:26.181Z,14.51
2023-05-14T20:06:57.845Z,14.49
2023-05-14T20:09:29.364Z,14.49
2023-05-14T20:12:00.955Z,14.48
2023-05-14T20:14:32.527Z,14.46
2023-05-14T20:17:04.460Z,14.45
2023-05-14T20:19:36.210Z,14.43
2023-05-14T20:22:07.887Z,14.39
2023-05-14T20:24:41.075Z,14.36
2023-05-14T20:27:12.972Z,14.31
2023-05-14T20:29:45.446Z,14.28
2023-05-14T20:32:17.043Z,14.27
2023-05-14T20:34:48.816Z,14.27
2023-05-14T20:37:20.756Z,14.27
2023-05-14T20:39:53.293Z,14.24
2023-05-14T20:42:25.100Z,14.23
2023-05-14T20:45:03.218Z,14.22
2023-05-14T20:47:35.674Z,14.20
2023-05-14T20:50:08.996Z,14.20
2023-05-14T20:52:40.643Z,14.19
2023-05-14T20:55:13.326Z,14.17
2023-05-14T20:57:45.006Z,14.16
2023-05-14T21:00:17.935Z,14.16
2023-05-14T21:02:49.765Z,14.14
2023-05-14T21:05:22.020Z,14.13
2023-05-14T21:07:53.563Z,14.14
2023-05-14T21:10:35.391Z,14.16
2023-05-14T21:13:07.123Z,14.17
2023-05-14T21:15:38.798Z,14.13
2023-05-14T21:18:10.653Z,14.12
2023-05-14T21:20:42.546Z,14.05
2023-05-14T21:23:16.043Z,13.96
2023-05-14T21:25:47.681Z,13.84
2023-05-14T21:28:19.316Z,13.74
2023-05-14T21:30:52.863Z,13.64
2023-05-14T21:33:24.650Z,13.56
2023-05-14T21:35:56.256Z,13.47
2023-05-14T21:38:27.913Z,13.39
2023-05-14T21:40:59.677Z,13.29
2023-05-14T21:43:31.428Z,13.23
2023-05-14T21:46:03.202Z,13.20
2023-05-14T21:48:35.011Z,13.18
2023-05-14T21:51:07.313Z,13.16
2023-05-14T21:53:38.927Z,13.14
2023-05-14T21:56:10.708Z,13.12
2023-05-14T21:58:42.464Z,13.09
2023-05-14T22:01:14.110Z,13.05
2023-05-14T22:03:45.852Z,13.01
2023-05-14T22:06:17.331Z,12.98
2023-05-14T22:08:47.428Z,12.96
2023-05-14T22:11:18.919Z,12.87
2023-05-14T22:13:50.782Z,12.83
2023-05-14T22:16:22.711Z,12.82
2023-05-14T22:18:54.570Z,12.80
2023-05-14T22:21:26.150Z,12.76
2023-05-14T22:23:57.766Z,12.72
2023-05-14T22:26:29.282Z,12.68
2023-05-14T22:29:00.852Z,12.65
2023-05-14T22:31:32.401Z,12.62
2023-05-14T22:34:04.027Z,12.61
2023-05-14T22:36:35.654Z,12.58
2023-05-14T22:39:07.412Z,12.54
2023-05-14T22:41:39.089Z,12.51
2023-05-14T22:44:10.632Z,12.48
2023-05-14T22:46:41.138Z,12.45
2023-05-14T22:49:12.653Z,12.36
2023-05-14T22:51:42.873Z,12.33
2023-05-14T22:54:14.479Z,12.24
2023-05-14T22:56:45.985Z,12.21
2023-05-14T22:59:16.417Z,12.18
2023-05-14T23:01:48.385Z,12.12
2023-05-14T23:04:20.007Z,12.12
2023-05-14T23:06:51.523Z,12.12
2023-05-14T23:09:23.059Z,12.08
2023-05-14T23:11:53.081Z,12.07
2023-05-14T23:14:24.592Z,12.02
2023-05-14T23:16:54.641Z,12.00
2023-05-14T23:19:26.483Z,11.95
2023-05-14T23:21:59.397Z,11.96
2023-05-14T23:24:30.893Z,11.95
2023-05-14T23:27:01.180Z,11.94
2023-05-14T23:29:32.671Z,11.90
2023-05-14T23:32:02.756Z,11.90
2023-05-14T23:34:34.614Z,11.85
2023-05-14T23:37:06.412Z,11.84
2023-05-14T23:39:38.042Z,11.84
2023-05-14T23:42:09.895Z,11.82
2023-05-14T23:44:41.440Z,11.82
2023-05-14T23:47:12.304Z,11.81
2023-05-14T23:49:43.850Z,11.75
2023-05-14T23:52:15.328Z,11.76
2023-05-14T23:54:47.006Z,11.76
2023-05-14T23:57:18.691Z,11.75
2023-05-14T23:59:50.378Z,11.76
